Time;durP1;ratioP1;P1;durP2;ratioP2;P2;SDS_P1;SDS_P2;PMS_P1;PMS_P2;Temp;Humidity;BMP_temperature;BMP_pressure;BME280_temperature;BME280_humidity;BME280_pressure;Samples;Min_cycle;Max_cycle;Signal;HPM_P1;HPM_P2
2021/06/30 00:00:13;;;;;;;8.02;7.03;;;18.50;84.60;;;;;;4973245;28;20074;-83
2021/06/30 00:02:39;;;;;;;7.75;7.05;;;18.40;84.70;;;;;;4957560;28;20038;-83
2021/06/30 00:05:07;;;;;;;7.05;6.43;;;18.30;84.90;;;;;;4990144;28;20114;-84
2021/06/30 00:07:33;;;;;;;8.75;7.95;;;18.40;85.20;;;;;;4991194;28;20053;-83
2021/06/30 00:10:00;;;;;;;6.75;6.15;;;18.40;85.30;;;;;;4973979;28;20037;-84
2021/06/30 00:12:26;;;;;;;6.75;6.15;;;18.40;85.20;;;;;;4957117;28;20466;-85
2021/06/30 00:14:53;;;;;;;6.90;6.30;;;18.40;85.30;;;;;;4973250;28;20041;-83
2021/06/30 00:17:19;;;;;;;6.90;6.20;;;18.40;85.30;;;;;;4990202;28;20054;-85
2021/06/30 00:19:45;;;;;;;7.00;6.03;;;18.40;85.30;;;;;;4989650;28;20026;-84
2021/06/30 00:22:11;;;;;;;7.05;6.45;;;18.30;85.30;;;;;;4989994;28;20061;-85
2021/06/30 00:24:36;;;;;;;7.20;6.60;;;18.40;85.40;;;;;;4956816;28;20038;-84
2021/06/30 00:27:02;;;;;;;7.05;6.35;;;18.40;85.30;;;;;;4957085;28;20041;-86
2021/06/30 00:29:28;;;;;;;5.72;5.25;;;18.40;85.20;;;;;;4972559;28;20034;-84
2021/06/30 00:31:54;;;;;;;5.22;4.88;;;18.40;85.00;;;;;;4991096;28;20034;-86
2021/06/30 00:34:19;;;;;;;5.18;4.78;;;18.40;84.90;;;;;;4957071;28;20030;-85
2021/06/30 00:36:47;;;;;;;4.45;4.05;;;18.30;84.90;;;;;;4973656;28;20027;-87
2021/06/30 00:39:15;;;;;;;4.72;4.32;;;18.20;84.90;;;;;;4990153;28;20054;-85
2021/06/30 00:41:44;;;;;;;4.70;4.30;;;18.10;85.00;;;;;;4957357;28;20034;-84
2021/06/30 00:44:10;;;;;;;3.13;2.92;;;18.10;85.20;;;;;;4974846;28;20073;-81
2021/06/30 00:46:36;;;;;;;4.78;2.83;;;18.10;85.20;;;;;;4976828;28;20027;-84
2021/06/30 00:49:05;;;;;;;3.03;2.67;;;18.10;85.10;;;;;;4977046;28;20035;-85
2021/06/30 00:51:31;;;;;;;3.30;3.10;;;18.00;85.00;;;;;;4977436;28;20038;-85
2021/06/30 00:53:56;;;;;;;4.28;2.35;;;17.90;85.50;;;;;;4976803;28;20174;-86
2021/06/30 00:56:26;;;;;;;3.05;2.75;;;17.80;85.50;;;;;;4959902;28;20112;-85
2021/06/30 00:59:02;;;;;;;2.17;1.90;;;17.80;85.80;;;;;;4993158;28;20470;-84
2021/06/30 01:01:28;;;;;;;2.03;1.65;;;17.80;85.80;;;;;;4977009;28;20046;-85
2021/06/30 01:03:54;;;;;;;2.38;1.85;;;17.90;85.80;;;;;;4994385;28;20049;-83
2021/06/30 01:06:21;;;;;;;2.17;1.98;;;17.90;85.80;;;;;;4992998;28;20038;-84
2021/06/30 01:08:47;;;;;;;1.63;1.48;;;17.90;86.00;;;;;;4993986;28;20581;-83
2021/06/30 01:11:14;;;;;;;4.22;1.83;;;17.90;86.40;;;;;;4993917;28;20046;-83
2021/06/30 01:13:41;;;;;;;2.10;1.70;;;17.90;86.00;;;;;;4976216;28;20026;-83
2021/06/30 01:16:08;;;;;;;2.85;1.25;;;17.90;85.70;;;;;;4976625;28;20018;-84
2021/06/30 01:18:35;;;;;;;1.73;1.17;;;17.90;85.70;;;;;;4975344;28;20026;-83
2021/06/30 01:21:03;;;;;;;1.05;0.90;;;17.90;85.70;;;;;;4976170;28;20096;-83
2021/06/30 01:23:30;;;;;;;2.58;0.93;;;17.90;85.70;;;;;;4975740;28;20056;-83
2021/06/30 01:25:56;;;;;;;1.33;0.80;;;17.80;85.80;;;;;;4960213;28;20034;-84
2021/06/30 01:28:22;;;;;;;1.90;1.00;;;17.90;85.70;;;;;;4943631;28;20026;-83
2021/06/30 01:30:50;;;;;;;1.27;0.82;;;17.90;85.90;;;;;;4946397;28;20308;-83
2021/06/30 01:33:16;;;;;;;1.58;1.00;;;17.90;85.70;;;;;;4963823;28;20044;-82
2021/06/30 01:35:42;;;;;;;0.90;0.80;;;17.90;85.60;;;;;;4976263;28;20037;-84
2021/06/30 01:38:07;;;;;;;0.98;0.60;;;17.90;85.50;;;;;;4993828;28;20113;-85
2021/06/30 01:40:33;;;;;;;1.75;0.60;;;17.80;85.50;;;;;;4985122;28;20053;-85
2021/06/30 01:43:00;;;;;;;1.17;0.70;;;17.80;85.50;;;;;;4979376;28;20439;-85
2021/06/30 01:45:26;;;;;;;1.00;0.60;;;17.80;85.80;;;;;;5013059;28;20030;-85
2021/06/30 01:47:52;;;;;;;0.90;0.60;;;17.70;85.80;;;;;;4979898;28;20026;-83
2021/06/30 01:50:18;;;;;;;0.95;0.50;;;17.70;86.00;;;;;;4976536;28;20546;-81
2021/06/30 01:52:45;;;;;;;1.25;0.50;;;17.70;85.90;;;;;;4960028;28;20162;-87
2021/06/30 01:55:12;;;;;;;1.38;0.50;;;17.70;85.90;;;;;;4959778;28;20061;-86
2021/06/30 01:57:45;;;;;;;1.33;0.60;;;17.50;85.70;;;;;;4975844;28;20141;-85
2021/06/30 02:00:13;;;;;;;2.15;0.60;;;17.40;86.00;;;;;;4979014;28;20038;-85
2021/06/30 02:02:40;;;;;;;1.00;0.70;;;17.30;86.20;;;;;;4983514;28;20022;-85
2021/06/30 02:05:19;;;;;;;1.10;0.70;;;17.30;86.40;;;;;;4991728;28;20041;-83
2021/06/30 02:07:50;;;;;;;0.82;0.60;;;17.20;86.60;;;;;;4980744;28;20046;-84
2021/06/30 02:10:17;;;;;;;0.65;0.50;;;17.20;86.70;;;;;;4998537;28;20102;-84
2021/06/30 02:12:44;;;;;;;0.98;0.55;;;17.20;86.60;;;;;;4997804;28;20026;-85
2021/06/30 02:15:20;;;;;;;1.40;0.70;;;17.20;86.60;;;;;;4996317;28;20103;-84
2021/06/30 02:17:46;;;;;;;1.23;0.60;;;17.20;86.70;;;;;;4993064;28;20043;-84
2021/06/30 02:20:12;;;;;;;1.30;0.75;;;17.20;86.80;;;;;;4995577;28;20042;-85
2021/06/30 02:22:39;;;;;;;2.00;0.68;;;17.30;86.80;;;;;;5013266;28;20026;-83
2021/06/30 02:25:18;;;;;;;2.85;0.80;;;17.30;86.80;;;;;;5014641;28;20038;-83
2021/06/30 02:27:44;;;;;;;1.90;0.65;;;17.30;86.80;;;;;;4997309;28;20313;-83
2021/06/30 02:30:13;;;;;;;1.65;0.70;;;17.40;86.60;;;;;;5008832;28;20035;-84
2021/06/30 02:32:39;;;;;;;1.25;0.98;;;17.30;86.40;;;;;;4991124;28;20026;-84
2021/06/30 02:35:08;;;;;;;1.15;0.80;;;17.30;86.30;;;;;;4964921;28;20080;-84
2021/06/30 02:37:34;;;;;;;1.05;0.70;;;17.30;86.30;;;;;;4994348;28;20026;-84
2021/06/30 02:40:00;;;;;;;1.42;1.00;;;17.30;86.40;;;;;;4961617;28;20026;-86
2021/06/30 02:42:26;;;;;;;1.10;0.73;;;17.30;86.40;;;;;;4996596;28;20030;-86
2021/06/30 02:44:51;;;;;;;1.05;0.70;;;17.20;86.40;;;;;;4962771;28;20038;-86
2021/06/30 02:47:18;;;;;;;1.40;1.00;;;17.20;86.30;;;;;;4978365;28;20495;-84
2021/06/30 02:49:44;;;;;;;1.98;0.75;;;17.20;86.40;;;;;;4961237;28;20034;-84
2021/06/30 02:52:10;;;;;;;1.50;0.80;;;17.20;86.40;;;;;;4976807;28;20034;-83
2021/06/30 02:54:35;;;;;;;1.75;0.60;;;17.20;86.40;;;;;;4959431;28;20045;-83
2021/06/30 02:57:01;;;;;;;1.40;0.60;;;17.20;86.50;;;;;;4976669;28;20054;-83
2021/06/30 02:59:27;;;;;;;0.98;0.70;;;17.20;86.60;;;;;;4975913;28;20069;-85
2021/06/30 03:01:53;;;;;;;2.65;0.60;;;17.30;86.40;;;;;;4946172;28;20034;-84
2021/06/30 03:04:18;;;;;;;2.15;0.75;;;17.20;86.30;;;;;;4979879;28;20483;-87
2021/06/30 03:06:44;;;;;;;1.30;0.80;;;17.20;86.40;;;;;;4951910;28;20339;-87
2021/06/30 03:09:10;;;;;;;0.95;0.60;;;17.10;86.40;;;;;;4955964;28;20372;-87
2021/06/30 03:11:36;;;;;;;1.00;0.63;;;17.10;86.50;;;;;;4992641;28;20062;-87
2021/06/30 03:14:01;;;;;;;1.20;0.60;;;17.00;86.30;;;;;;4993213;28;20044;-89
2021/06/30 03:16:27;;;;;;;2.08;0.70;;;17.00;86.60;;;;;;4992517;28;20141;-87
2021/06/30 03:18:53;;;;;;;0.77;0.50;;;17.00;86.70;;;;;;4973380;28;20495;-89
2021/06/30 03:21:18;;;;;;;1.10;0.63;;;17.00;86.70;;;;;;4963584;28;20038;-89
2021/06/30 03:23:44;;;;;;;0.93;0.60;;;16.90;86.70;;;;;;4993122;28;20022;-88
2021/06/30 03:26:10;;;;;;;1.00;0.70;;;16.90;86.80;;;;;;4964599;28;20058;-88
2021/06/30 03:28:35;;;;;;;0.90;0.70;;;16.90;86.90;;;;;;4975554;28;20045;-89
2021/06/30 03:31:01;;;;;;;0.88;0.60;;;16.90;86.90;;;;;;4975895;28;20038;-88
2021/06/30 03:33:27;;;;;;;0.80;0.70;;;17.00;86.90;;;;;;4959020;28;20030;-87
2021/06/30 03:35:52;;;;;;;1.50;0.60;;;17.10;86.70;;;;;;4974495;28;20034;-88
2021/06/30 03:38:18;;;;;;;1.67;0.90;;;17.10;86.70;;;;;;4959083;28;20030;-87
2021/06/30 03:40:44;;;;;;;1.20;1.10;;;17.10;86.70;;;;;;4974025;28;20034;-86
2021/06/30 03:43:10;;;;;;;1.08;0.77;;;17.10;86.70;;;;;;4958736;28;20026;-87
2021/06/30 03:45:36;;;;;;;1.05;0.85;;;17.10;86.70;;;;;;4957478;28;20046;-85
2021/06/30 03:48:01;;;;;;;1.00;0.73;;;17.00;86.70;;;;;;4958576;28;20034;-86
2021/06/30 03:50:27;;;;;;;1.65;0.70;;;17.00;86.40;;;;;;4991830;28;20062;-87
2021/06/30 03:52:53;;;;;;;1.00;0.60;;;16.90;86.60;;;;;;4973518;28;20058;-88
2021/06/30 03:55:18;;;;;;;0.90;0.68;;;16.90;86.70;;;;;;4942478;28;20038;-86
2021/06/30 03:57:44;;;;;;;0.90;0.77;;;16.90;86.70;;;;;;4973949;28;20084;-88
2021/06/30 04:00:10;;;;;;;1.42;0.90;;;16.90;86.80;;;;;;4958421;28;20474;-87
2021/06/30 04:02:36;;;;;;;1.00;0.80;;;17.00;86.80;;;;;;4957914;28;20054;-85
2021/06/30 04:05:01;;;;;;;2.25;0.70;;;17.00;86.60;;;;;;4958664;28;20070;-87
2021/06/30 04:07:27;;;;;;;1.10;0.85;;;17.00;86.70;;;;;;4974730;28;20119;-86
2021/06/30 04:09:53;;;;;;;2.13;1.10;;;17.00;86.50;;;;;;4958166;28;20034;-86
2021/06/30 04:12:20;;;;;;;3.28;1.27;;;17.00;86.40;;;;;;4957850;28;20046;-88
2021/06/30 04:14:46;;;;;;;1.90;1.20;;;16.90;86.40;;;;;;4973734;28;20411;-87
2021/06/30 04:17:12;;;;;;;1.95;1.23;;;16.90;86.50;;;;;;4991565;28;20156;-87
2021/06/30 04:19:37;;;;;;;3.13;1.33;;;17.00;86.60;;;;;;4977021;28;20379;-84
2021/06/30 04:22:03;;;;;;;2.28;1.10;;;16.90;86.50;;;;;;4977919;28;20046;-87
2021/06/30 04:24:29;;;;;;;2.38;1.40;;;17.00;86.70;;;;;;4961986;28;20137;-87
2021/06/30 04:26:55;;;;;;;1.80;1.00;;;17.00;86.50;;;;;;4961495;28;20508;-87
2021/06/30 04:29:21;;;;;;;1.48;1.10;;;17.00;86.40;;;;;;4977801;28;20030;-86
2021/06/30 04:31:46;;;;;;;1.67;1.20;;;17.00;86.30;;;;;;4976982;28;20038;-86
2021/06/30 04:34:12;;;;;;;1.33;1.00;;;17.00;86.20;;;;;;4995328;28;20057;-86
2021/06/30 04:36:38;;;;;;;2.08;0.90;;;17.00;86.30;;;;;;4961280;28;20030;-83
2021/06/30 04:39:03;;;;;;;1.65;0.80;;;17.00;86.30;;;;;;4976830;28;20137;-85
2021/06/30 04:41:29;;;;;;;1.27;1.15;;;17.00;86.30;;;;;;4976738;28;20042;-86
2021/06/30 04:43:55;;;;;;;1.17;1.08;;;17.00;86.20;;;;;;4976130;28;20177;-85
2021/06/30 04:46:20;;;;;;;2.38;0.90;;;17.00;86.20;;;;;;4960742;28;20066;-84
2021/06/30 04:48:47;;;;;;;2.08;1.23;;;17.10;86.30;;;;;;4976263;28;20447;-86
2021/06/30 04:51:12;;;;;;;1.00;0.80;;;17.10;86.10;;;;;;4960668;28;20394;-84
2021/06/30 04:53:38;;;;;;;1.75;1.00;;;17.10;86.00;;;;;;4960797;28;20035;-85
2021/06/30 04:56:04;;;;;;;1.40;1.00;;;17.10;85.90;;;;;;4960063;28;20632;-84
2021/06/30 04:58:30;;;;;;;1.52;1.42;;;17.20;85.80;;;;;;4976796;28;20041;-84
2021/06/30 05:00:56;;;;;;;1.77;1.08;;;17.20;85.90;;;;;;4976052;28;20368;-85
2021/06/30 05:03:26;;;;;;;1.30;1.20;;;17.10;85.80;;;;;;4960287;28;20026;-87
2021/06/30 05:05:53;;;;;;;1.10;0.98;;;17.10;85.90;;;;;;4975835;28;20498;-86
2021/06/30 05:08:19;;;;;;;1.30;1.05;;;17.10;85.90;;;;;;4985377;28;20501;-85
2021/06/30 05:10:44;;;;;;;2.05;1.30;;;17.10;85.80;;;;;;4996408;28;20045;-86
2021/06/30 05:13:10;;;;;;;1.35;0.93;;;17.10;85.80;;;;;;4980700;28;20474;-85
2021/06/30 05:15:36;;;;;;;1.13;1.00;;;17.10;85.80;;;;;;4981282;28;20058;-88
2021/06/30 05:18:01;;;;;;;3.25;1.42;;;17.10;85.80;;;;;;4997096;28;20219;-86
2021/06/30 05:20:27;;;;;;;1.05;0.95;;;17.10;85.60;;;;;;4965522;28;20069;-87
2021/06/30 05:22:53;;;;;;;1.30;0.88;;;17.10;85.90;;;;;;4980996;28;20034;-88
2021/06/30 05:25:18;;;;;;;1.35;1.25;;;17.10;86.00;;;;;;4992293;28;20114;-87
2021/06/30 05:27:45;;;;;;;1.30;1.00;;;17.10;86.00;;;;;;4993968;28;20040;-85
2021/06/30 05:30:12;;;;;;;1.33;1.00;;;17.20;85.90;;;;;;4976500;28;20037;-87
2021/06/30 05:32:37;;;;;;;1.67;0.75;;;17.20;85.70;;;;;;4961751;28;20074;-87
2021/06/30 05:35:04;;;;;;;1.20;0.73;;;17.20;85.70;;;;;;4994651;28;20030;-88
2021/06/30 05:37:29;;;;;;;1.27;0.80;;;17.20;85.60;;;;;;4961601;28;20034;-86
2021/06/30 05:39:55;;;;;;;1.00;0.77;;;17.30;85.60;;;;;;4945244;28;20037;-87
2021/06/30 05:42:21;;;;;;;1.10;0.88;;;17.50;85.30;;;;;;4961897;28;20046;-88
2021/06/30 05:44:46;;;;;;;1.08;0.77;;;17.50;85.10;;;;;;4962122;28;20456;-90
2021/06/30 05:47:12;;;;;;;0.90;0.70;;;17.60;84.90;;;;;;4963226;28;20140;-85
2021/06/30 05:49:37;;;;;;;0.98;0.77;;;17.60;84.80;;;;;;5003485;28;20030;-85
2021/06/30 05:52:04;;;;;;;1.00;0.80;;;17.60;84.80;;;;;;4980565;28;20426;-85
2021/06/30 05:54:29;;;;;;;1.33;0.80;;;17.40;84.80;;;;;;4960481;28;20030;-86
2021/06/30 05:56:55;;;;;;;1.45;1.00;;;17.40;85.00;;;;;;4964590;28;20037;-87
2021/06/30 05:59:20;;;;;;;2.63;2.42;;;17.40;84.90;;;;;;4966768;28;20039;-85
2021/06/30 06:01:46;;;;;;;7.90;6.68;;;17.40;85.00;;;;;;4977366;28;20507;-86
2021/06/30 06:04:12;;;;;;;13.02;9.10;;;17.40;85.00;;;;;;4960013;28;20497;-86
2021/06/30 06:06:37;;;;;;;11.00;8.57;;;17.50;85.00;;;;;;4956517;28;20486;-85
2021/06/30 06:09:03;;;;;;;9.38;7.85;;;17.60;84.70;;;;;;4988456;28;20034;-87
2021/06/30 06:11:28;;;;;;;11.02;9.48;;;17.70;84.60;;;;;;4974092;28;20034;-85
2021/06/30 06:13:54;;;;;;;11.10;9.70;;;17.70;84.40;;;;;;4972215;28;20058;-85
2021/06/30 06:16:22;;;;;;;8.48;7.60;;;17.70;84.30;;;;;;4957727;28;20073;-86
2021/06/30 06:18:49;;;;;;;11.70;10.50;;;17.80;84.20;;;;;;4971402;28;20045;-86
2021/06/30 06:21:15;;;;;;;11.68;9.20;;;17.80;84.40;;;;;;4988122;28;20034;-85
2021/06/30 06:23:41;;;;;;;13.57;11.05;;;17.80;84.20;;;;;;4972557;28;20026;-85
2021/06/30 06:26:07;;;;;;;13.55;9.13;;;17.80;84.10;;;;;;4955900;28;20034;-85
2021/06/30 06:28:34;;;;;;;8.38;7.43;;;17.90;84.00;;;;;;4964909;28;20045;-86
2021/06/30 06:31:01;;;;;;;9.98;8.98;;;17.90;83.80;;;;;;4981218;28;20068;-88
2021/06/30 06:33:27;;;;;;;11.60;10.40;;;17.90;83.70;;;;;;4987547;28;20038;-88
2021/06/30 06:35:53;;;;;;;11.48;9.40;;;18.00;83.70;;;;;;4957042;28;21458;-88
2021/06/30 06:38:19;;;;;;;6.68;5.97;;;18.10;83.50;;;;;;4973519;28;20030;-85
2021/06/30 06:40:45;;;;;;;11.15;8.70;;;18.00;83.30;;;;;;4970849;28;20045;-86
2021/06/30 06:43:11;;;;;;;7.68;6.93;;;18.00;83.30;;;;;;4970736;28;20026;-88
2021/06/30 06:45:37;;;;;;;6.15;5.20;;;17.90;83.30;;;;;;4954566;28;20034;-86
2021/06/30 06:48:04;;;;;;;7.63;6.78;;;17.90;83.50;;;;;;4956906;28;20038;-88
2021/06/30 06:50:30;;;;;;;10.60;7.82;;;17.90;83.60;;;;;;4976541;28;20111;-84
2021/06/30 06:52:56;;;;;;;5.03;4.63;;;17.80;83.60;;;;;;4977516;28;20030;-87
2021/06/30 06:55:23;;;;;;;7.35;6.43;;;17.90;83.60;;;;;;4974819;28;20474;-87
2021/06/30 06:57:50;;;;;;;6.63;6.03;;;17.90;83.60;;;;;;4991992;28;20031;-87
2021/06/30 07:00:16;;;;;;;4.65;4.15;;;17.90;83.70;;;;;;4972891;28;20096;-88
2021/06/30 07:02:42;;;;;;;5.20;4.68;;;17.90;83.50;;;;;;4943468;28;20092;-89
2021/06/30 07:05:08;;;;;;;4.85;4.45;;;17.90;83.40;;;;;;4958777;28;20026;-89
2021/06/30 07:07:42;;;;;;;5.78;4.97;;;17.90;83.60;;;;;;4974641;28;20068;-86
2021/06/30 07:10:09;;;;;;;5.25;4.78;;;18.00;83.70;;;;;;4973692;28;20065;-90
2021/06/30 07:12:35;;;;;;;4.63;4.22;;;18.00;83.60;;;;;;4992006;28;20061;-88
2021/06/30 07:15:01;;;;;;;4.35;4.05;;;18.00;83.40;;;;;;4991751;28;20088;-86
2021/06/30 07:17:28;;;;;;;5.35;4.85;;;18.10;83.30;;;;;;4933355;28;20046;-91
2021/06/30 07:19:54;;;;;;;4.38;3.97;;;18.10;83.10;;;;;;4976588;28;20027;-89
2021/06/30 07:22:20;;;;;;;5.60;3.75;;;18.00;83.10;;;;;;4983222;28;20082;-89
2021/06/30 07:24:46;;;;;;;5.05;4.65;;;18.00;83.10;;;;;;4950261;28;20138;-88
2021/06/30 07:27:15;;;;;;;3.65;3.35;;;18.10;83.10;;;;;;4952822;28;20501;-91
2021/06/30 07:29:45;;;;;;;3.70;3.40;;;18.20;83.10;;;;;;4973048;28;20076;-90
2021/06/30 07:32:15;;;;;;;3.63;3.33;;;18.30;83.00;;;;;;4990382;28;20031;-91
2021/06/30 07:34:41;;;;;;;2.88;2.67;;;18.30;82.90;;;;;;4991431;28;20485;-90
2021/06/30 07:37:10;;;;;;;5.03;3.65;;;18.40;82.50;;;;;;4971960;28;20114;-90
2021/06/30 07:39:36;;;;;;;2.83;2.63;;;18.60;82.30;;;;;;4985904;28;20027;-90
2021/06/30 07:42:02;;;;;;;2.88;2.25;;;18.90;82.00;;;;;;5002872;28;20042;-88
2021/06/30 07:44:28;;;;;;;2.72;2.42;;;19.10;81.40;;;;;;4999308;28;20022;-87
2021/06/30 07:46:56;;;;;;;3.00;2.70;;;19.30;80.90;;;;;;4999857;28;20038;-89
2021/06/30 07:49:22;;;;;;;3.17;1.80;;;19.40;80.40;;;;;;4981009;28;20022;-89
2021/06/30 07:51:49;;;;;;;2.38;2.17;;;19.40;80.00;;;;;;4965535;28;20103;-87
2021/06/30 07:54:15;;;;;;;2.50;2.30;;;19.40;79.70;;;;;;4997166;28;20475;-88
2021/06/30 07:56:41;;;;;;;2.85;1.92;;;19.40;79.70;;;;;;4998552;28;20053;-88
2021/06/30 07:59:11;;;;;;;2.92;2.58;;;19.40;79.60;;;;;;4997154;28;20034;-88
2021/06/30 08:01:38;;;;;;;2.40;2.20;;;19.40;79.60;;;;;;4982325;28;20102;-88
2021/06/30 08:04:05;;;;;;;2.53;2.33;;;19.40;79.60;;;;;;5012574;28;20049;-87
2021/06/30 08:06:36;;;;;;;2.70;2.28;;;19.40;79.60;;;;;;4988529;28;20085;-87
2021/06/30 08:09:09;;;;;;;2.15;2.00;;;19.30;79.90;;;;;;4981374;28;20030;-89
2021/06/30 08:11:38;;;;;;;;;;;19.20;79.90;;;;;;4982481;28;20073;-86
2021/06/30 08:14:07;;;;;;;2.45;2.25;;;19.10;80.10;;;;;;4981359;28;19924;-87
2021/06/30 08:16:32;;;;;;;2.75;2.53;;;19.00;80.40;;;;;;4965831;28;20034;-87
2021/06/30 08:18:58;;;;;;;2.78;2.50;;;18.90;80.40;;;;;;4980442;28;20032;-89
2021/06/30 08:21:24;;;;;;;3.10;2.80;;;18.80;80.80;;;;;;4962839;28;20114;-87
2021/06/30 08:23:51;;;;;;;3.80;2.97;;;18.80;81.00;;;;;;4963398;28;20473;-88
2021/06/30 08:26:18;;;;;;;3.45;2.60;;;18.80;81.20;;;;;;4964944;28;20069;-87
2021/06/30 08:28:45;;;;;;;2.58;2.38;;;18.80;81.30;;;;;;4976757;28;20057;-88
2021/06/30 08:31:12;;;;;;;2.30;2.20;;;18.80;80.80;;;;;;4981440;28;20026;-85
2021/06/30 08:33:38;;;;;;;2.53;2.33;;;18.80;80.80;;;;;;4985807;28;20038;-87
2021/06/30 08:36:05;;;;;;;2.80;2.60;;;18.80;80.90;;;;;;4984116;28;20018;-84
2021/06/30 08:38:31;;;;;;;2.58;2.22;;;19.00;80.80;;;;;;4967014;28;20406;-85
2021/06/30 08:40:59;;;;;;;2.42;2.22;;;19.00;80.60;;;;;;4979349;28;20039;-85
2021/06/30 08:43:25;;;;;;;2.60;2.40;;;19.10;80.20;;;;;;4995362;28;20056;-87
2021/06/30 08:45:51;;;;;;;2.92;2.70;;;19.20;80.20;;;;;;4995184;28;20034;-86
2021/06/30 08:48:17;;;;;;;2.70;2.50;;;19.20;80.40;;;;;;4994530;28;20463;-87
2021/06/30 08:50:45;;;;;;;2.92;2.72;;;19.30;79.70;;;;;;4961204;28;20065;-86
2021/06/30 08:53:13;;;;;;;2.53;2.33;;;19.30;79.50;;;;;;4961458;28;20030;-86
2021/06/30 08:55:46;;;;;;;2.10;1.90;;;19.40;79.70;;;;;;4961306;28;20121;-86
2021/06/30 08:58:13;;;;;;;3.03;2.33;;;19.50;79.30;;;;;;4993443;28;20026;-83
2021/06/30 09:00:41;;;;;;;2.83;2.58;;;19.70;78.80;;;;;;4991641;28;20046;-86
2021/06/30 09:03:12;;;;;;;3.42;2.35;;;20.00;78.70;;;;;;4973746;28;20033;-87
2021/06/30 09:08:41;;;;;;;1.92;1.75;;;20.20;77.60;;;;;;4995050;28;20039;-84
2021/06/30 09:11:14;;;;;;;3.35;1.85;;;20.20;77.80;;;;;;4984986;28;20140;-87
2021/06/30 09:13:40;;;;;;;1.90;1.77;;;20.00;77.80;;;;;;4996638;28;20038;-88
2021/06/30 09:16:06;;;;;;;2.00;1.90;;;19.90;78.00;;;;;;4977905;28;20049;-86
2021/06/30 09:18:36;;;;;;;2.30;2.10;;;20.00;78.00;;;;;;4976580;28;20313;-88
2021/06/30 09:21:22;;;;;;;3.00;2.60;;;19.90;78.20;;;;;;4994936;28;20420;-86
2021/06/30 09:24:01;;;;;;;3.08;2.88;;;20.00;77.90;;;;;;4993437;28;20062;-86
2021/06/30 09:26:37;;;;;;;3.85;2.95;;;20.00;78.10;;;;;;4976525;28;20037;-87
2021/06/30 09:29:11;;;;;;;3.47;3.17;;;20.10;77.80;;;;;;4994472;28;20033;-85
2021/06/30 09:31:40;;;;;;;3.75;2.95;;;20.10;77.40;;;;;;4991584;28;20068;-86
2021/06/30 09:34:06;;;;;;;3.45;2.63;;;20.10;77.10;;;;;;4976954;28;20061;-84
2021/06/30 09:36:50;;;;;;;3.22;2.95;;;20.20;77.20;;;;;;4993801;28;20030;-85
2021/06/30 09:39:16;;;;;;;3.30;2.97;;;20.10;77.50;;;;;;4976025;28;20033;-82
2021/06/30 09:41:46;;;;;;;3.80;3.25;;;20.00;76.80;;;;;;4965507;28;20058;-84
2021/06/30 09:44:14;;;;;;;4.22;3.22;;;19.90;77.10;;;;;;4946852;28;20362;-84
2021/06/30 09:46:42;;;;;;;4.55;3.50;;;19.90;77.50;;;;;;4992125;28;20019;-86
2021/06/30 09:49:10;;;;;;;3.55;3.25;;;20.00;77.70;;;;;;4976188;28;20109;-86
2021/06/30 09:51:37;;;;;;;3.92;3.63;;;20.10;77.50;;;;;;4975664;28;20030;-88
2021/06/30 09:54:06;;;;;;;3.88;3.55;;;20.20;77.20;;;;;;4976296;28;20038;-85
2021/06/30 09:59:02;;;;;;;4.43;2.60;;;20.30;77.10;;;;;;4994302;28;20033;-82
2021/06/30 10:01:28;;;;;;;4.53;3.10;;;20.30;76.60;;;;;;4992867;28;20038;-82
2021/06/30 10:03:54;;;;;;;2.63;2.42;;;20.30;76.10;;;;;;4975868;28;20044;-80
2021/06/30 10:06:34;;;;;;;3.08;2.78;;;20.40;76.20;;;;;;4959486;28;20034;-80
2021/06/30 10:09:02;;;;;;;3.92;3.30;;;20.20;76.30;;;;;;4977286;28;20449;-86
2021/06/30 10:11:30;;;;;;;3.63;3.35;;;20.00;76.70;;;;;;4973956;28;20030;-88
2021/06/30 10:13:56;;;;;;;3.70;3.40;;;19.90;77.10;;;;;;4976285;28;20037;-88
2021/06/30 10:16:24;;;;;;;4.28;3.30;;;20.10;77.50;;;;;;4975141;28;20033;-82
2021/06/30 10:18:51;;;;;;;3.50;3.20;;;20.90;76.50;;;;;;4960759;28;20049;-88
2021/06/30 10:21:19;;;;;;;3.03;2.83;;;21.50;74.30;;;;;;4976936;28;20038;-90
2021/06/30 10:23:46;;;;;;;3.78;3.47;;;21.70;73.60;;;;;;4992900;28;20061;-87
2021/06/30 10:26:15;;;;;;;2.47;2.25;;;21.40;73.30;;;;;;4995126;28;20342;-89
2021/06/30 10:28:41;;;;;;;2.88;2.55;;;20.90;73.90;;;;;;4968691;28;20031;-91
2021/06/30 10:31:07;;;;;;;2.33;2.13;;;20.60;74.90;;;;;;4976341;28;20038;-88
2021/06/30 10:33:37;;;;;;;3.08;2.85;;;20.30;75.40;;;;;;4974659;28;20043;-88
2021/06/30 10:36:04;;;;;;;3.78;2.90;;;20.10;75.90;;;;;;4975973;28;20058;-89
2021/06/30 10:38:53;;;;;;;3.85;3.55;;;20.30;76.00;;;;;;4974449;28;20027;-90
2021/06/30 10:41:52;;;;;;;4.88;2.97;;;20.40;75.60;;;;;;4975744;28;20039;-90
2021/06/30 10:44:23;;;;;;;3.17;2.88;;;20.40;75.60;;;;;;4959846;28;20518;-90
2021/06/30 10:46:51;;;;;;;3.30;3.08;;;20.30;75.70;;;;;;4974362;28;20061;-88
2021/06/30 10:49:30;;;;;;;2.63;2.42;;;20.20;76.00;;;;;;4957721;28;20031;-90
2021/06/30 10:52:05;;;;;;;3.20;3.00;;;20.00;76.20;;;;;;4973949;28;20029;-86
2021/06/30 10:54:41;;;;;;;2.97;2.78;;;19.90;76.40;;;;;;4974664;28;20037;-89
2021/06/30 10:57:18;;;;;;;2.20;2.00;;;19.80;76.90;;;;;;4973892;28;20033;-84
2021/06/30 11:00:00;;;;;;;2.25;1.85;;;19.50;77.20;;;;;;4955024;28;20035;-85
2021/06/30 11:02:31;;;;;;;2.40;2.20;;;19.40;77.40;;;;;;4991206;28;20053;-82
2021/06/30 11:05:17;;;;;;;2.50;2.30;;;19.30;77.60;;;;;;4975968;28;20402;-87
2021/06/30 11:07:45;;;;;;;2.95;2.58;;;19.20;77.90;;;;;;4964791;28;20096;-87
2021/06/30 11:10:34;;;;;;;3.45;3.15;;;19.30;78.20;;;;;;4976765;28;20030;-87
2021/06/30 11:13:01;;;;;;;3.33;3.05;;;19.60;77.90;;;;;;4951860;28;20502;-89
2021/06/30 11:15:36;;;;;;;4.78;3.78;;;20.00;77.00;;;;;;4956686;28;20042;-89
2021/06/30 11:18:22;;;;;;;4.15;3.75;;;20.40;76.00;;;;;;4983515;28;20061;-89
2021/06/30 11:20:50;;;;;;;3.15;2.85;;;20.60;75.30;;;;;;4954180;28;20133;-89
2021/06/30 11:23:18;;;;;;;4.20;2.42;;;20.50;74.90;;;;;;4974528;28;20022;-91
2021/06/30 11:25:44;;;;;;;3.00;2.65;;;20.20;75.80;;;;;;4939609;28;20038;-89
2021/06/30 11:28:38;;;;;;;4.75;3.15;;;20.20;75.80;;;;;;4973654;28;20027;-90
2021/06/30 11:31:26;;;;;;;4.30;2.95;;;20.20;75.70;;;;;;4957373;28;20562;-90
2021/06/30 11:34:23;;;;;;;3.08;2.78;;;20.00;75.60;;;;;;4980959;28;20135;-91
2021/06/30 11:36:49;;;;;;;3.72;2.85;;;19.90;75.90;;;;;;4965742;28;20041;-86
2021/06/30 11:39:17;;;;;;;3.30;2.90;;;19.80;75.80;;;;;;4965517;28;20034;-89
2021/06/30 11:41:48;;;;;;;2.80;2.60;;;19.80;75.70;;;;;;4943946;28;20043;-88
2021/06/30 11:44:15;;;;;;;3.90;3.25;;;19.90;76.10;;;;;;4958655;28;20042;-91
2021/06/30 11:46:44;;;;;;;5.05;3.75;;;20.20;75.60;;;;;;4957432;28;20031;-90
2021/06/30 11:49:12;;;;;;;4.75;3.40;;;20.50;74.90;;;;;;4979865;28;20037;-95
2021/06/30 11:51:38;;;;;;;4.03;3.00;;;20.70;74.50;;;;;;4957756;28;20038;-91
2021/06/30 11:54:13;;;;;;;3.80;3.45;;;20.80;73.70;;;;;;4971598;28;20113;-91
2021/06/30 11:56:41;;;;;;;3.97;3.40;;;20.80;73.50;;;;;;4943922;28;20114;-89
2021/06/30 11:59:14;;;;;;;3.22;2.92;;;20.90;73.30;;;;;;4972934;28;20106;-87
2021/06/30 12:01:40;;;;;;;4.18;3.80;;;21.00;73.50;;;;;;4955310;28;20042;-90
2021/06/30 12:04:14;;;;;;;4.22;3.65;;;21.20;72.90;;;;;;4972207;28;20058;-86
2021/06/30 12:06:42;;;;;;;3.95;3.65;;;21.40;72.20;;;;;;4956849;28;20035;-90
2021/06/30 12:09:07;;;;;;;4.00;3.70;;;21.40;71.70;;;;;;4940238;28;20031;-89
2021/06/30 12:11:35;;;;;;;4.13;3.83;;;21.40;72.00;;;;;;4958679;28;20069;-91
2021/06/30 12:14:04;;;;;;;3.08;2.63;;;21.20;72.60;;;;;;4972929;28;20033;-89
2021/06/30 12:16:43;;;;;;;3.10;2.90;;;21.00;72.80;;;;;;4974805;28;20050;-91
2021/06/30 12:19:18;;;;;;;2.90;2.70;;;21.20;72.90;;;;;;4979059;28;20109;-90
2021/06/30 12:21:46;;;;;;;2.28;2.08;;;21.60;72.40;;;;;;5000004;28;20038;-92
2021/06/30 12:24:22;;;;;;;1.48;1.35;;;21.80;71.50;;;;;;4969666;28;20122;-93
2021/06/30 12:27:03;;;;;;;1.67;1.35;;;22.00;70.60;;;;;;4982823;28;20035;-93
2021/06/30 12:29:30;;;;;;;2.55;2.35;;;22.00;70.30;;;;;;4983744;28;20014;-91
2021/06/30 12:31:56;;;;;;;2.20;1.83;;;21.90;70.20;;;;;;4978137;28;20061;-92
2021/06/30 12:34:23;;;;;;;2.50;2.30;;;21.80;70.40;;;;;;4989947;28;20113;-91
2021/06/30 12:36:49;;;;;;;2.75;2.47;;;21.60;71.10;;;;;;4993144;28;20386;-91
2021/06/30 12:39:31;;;;;;;3.60;3.10;;;21.50;71.80;;;;;;5001072;28;20030;-91
2021/06/30 12:42:01;;;;;;;3.08;2.80;;;21.50;71.80;;;;;;4987783;28;20035;-90
2021/06/30 12:44:29;;;;;;;3.38;3.08;;;21.70;71.30;;;;;;4996505;28;20026;-90
2021/06/30 12:47:22;;;;;;;2.97;2.78;;;21.80;71.10;;;;;;4994987;28;20053;-89
2021/06/30 12:50:01;;;;;;;2.83;2.63;;;21.90;70.90;;;;;;4997669;28;20027;-88
2021/06/30 12:52:28;;;;;;;3.72;3.38;;;22.00;70.60;;;;;;4978346;28;20077;-88
2021/06/30 12:55:05;;;;;;;3.67;3.30;;;22.10;70.30;;;;;;4997860;28;20118;-90